sensor_id;sensor_type;location;lat;lon;timestamp;temperature;humidity
71839;SHT31;59687;37.520;15.068;2022-12-15T00:00:16;16.44;74.53
71839;SHT31;59687;37.520;15.068;2022-12-15T00:03:06;16.23;75.30
71839;SHT31;59687;37.520;15.068;2022-12-15T00:05:52;16.06;75.65
71839;SHT31;59687;37.520;15.068;2022-12-15T00:08:39;16.05;75.54
71839;SHT31;59687;37.520;15.068;2022-12-15T00:11:26;15.82;76.13
71839;SHT31;59687;37.520;15.068;2022-12-15T00:14:15;15.88;75.66
71839;SHT31;59687;37.520;15.068;2022-12-15T00:17:00;15.98;75.30
71839;SHT31;59687;37.520;15.068;2022-12-15T00:19:46;16.05;74.98
71839;SHT31;59687;37.520;15.068;2022-12-15T00:22:32;15.85;75.91
71839;SHT31;59687;37.520;15.068;2022-12-15T00:25:18;15.70;76.84
71839;SHT31;59687;37.520;15.068;2022-12-15T00:28:04;15.58;77.15
71839;SHT31;59687;37.520;15.068;2022-12-15T00:30:50;15.50;77.33
71839;SHT31;59687;37.520;15.068;2022-12-15T00:33:37;15.42;77.70
71839;SHT31;59687;37.520;15.068;2022-12-15T00:36:22;15.49;77.64
71839;SHT31;59687;37.520;15.068;2022-12-15T00:39:09;15.43;77.71
71839;SHT31;59687;37.520;15.068;2022-12-15T00:41:35;15.43;77.58
71839;SHT31;59687;37.520;15.068;2022-12-15T00:44:04;15.35;77.88
71839;SHT31;59687;37.520;15.068;2022-12-15T00:46:32;15.30;77.95
71839;SHT31;59687;37.520;15.068;2022-12-15T00:49:23;15.29;77.97
71839;SHT31;59687;37.520;15.068;2022-12-15T00:52:10;15.35;77.93
71839;SHT31;59687;37.520;15.068;2022-12-15T00:54:56;15.40;77.55
71839;SHT31;59687;37.520;15.068;2022-12-15T00:57:42;15.47;77.40
71839;SHT31;59687;37.520;15.068;2022-12-15T01:00:30;15.54;77.05
71839;SHT31;59687;37.520;15.068;2022-12-15T01:03:19;15.53;76.99
71839;SHT31;59687;37.520;15.068;2022-12-15T01:06:07;15.47;76.89
71839;SHT31;59687;37.520;15.068;2022-12-15T01:08:54;15.42;76.48
71839;SHT31;59687;37.520;15.068;2022-12-15T01:11:40;15.36;76.58
71839;SHT31;59687;37.520;15.068;2022-12-15T01:14:27;15.44;75.75
71839;SHT31;59687;37.520;15.068;2022-12-15T01:17:14;15.42;75.74
71839;SHT31;59687;37.520;15.068;2022-12-15T01:20:01;15.61;75.18
71839;SHT31;59687;37.520;15.068;2022-12-15T01:22:54;15.72;74.45
71839;SHT31;59687;37.520;15.068;2022-12-15T01:25:23;15.80;74.13
71839;SHT31;59687;37.520;15.068;2022-12-15T01:27:51;16.02;73.43
71839;SHT31;59687;37.520;15.068;2022-12-15T01:30:25;15.99;73.25
71839;SHT31;59687;37.520;15.068;2022-12-15T01:32:52;15.85;73.67
71839;SHT31;59687;37.520;15.068;2022-12-15T01:35:19;15.80;73.48
71839;SHT31;59687;37.520;15.068;2022-12-15T01:37:47;15.78;73.66
71839;SHT31;59687;37.520;15.068;2022-12-15T01:40:15;15.65;73.65
71839;SHT31;59687;37.520;15.068;2022-12-15T01:43:01;15.61;73.51
71839;SHT31;59687;37.520;15.068;2022-12-15T01:51:13;15.67;73.09
71839;SHT31;59687;37.520;15.068;2022-12-15T01:53:54;15.60;73.53
71839;SHT31;59687;37.520;15.068;2022-12-15T01:56:25;15.43;74.21
71839;SHT31;59687;37.520;15.068;2022-12-15T01:58:58;15.32;74.67
71839;SHT31;59687;37.520;15.068;2022-12-15T02:01:27;15.23;74.63
71839;SHT31;59687;37.520;15.068;2022-12-15T02:03:55;15.16;74.99
71839;SHT31;59687;37.520;15.068;2022-12-15T02:06:24;15.19;74.77
71839;SHT31;59687;37.520;15.068;2022-12-15T02:08:53;15.20;74.90
71839;SHT31;59687;37.520;15.068;2022-12-15T02:11:47;15.03;75.75
71839;SHT31;59687;37.520;15.068;2022-12-15T02:14:39;14.95;75.94
71839;SHT31;59687;37.520;15.068;2022-12-15T02:28:15;14.49;76.97
71839;SHT31;59687;37.520;15.068;2022-12-15T02:31:00;14.39;77.54
71839;SHT31;59687;37.520;15.068;2022-12-15T02:33:59;14.33;77.65
71839;SHT31;59687;37.520;15.068;2022-12-15T02:36:33;14.29;77.71
71839;SHT31;59687;37.520;15.068;2022-12-15T02:39:04;14.18;77.78
71839;SHT31;59687;37.520;15.068;2022-12-15T02:41:42;14.19;78.03
71839;SHT31;59687;37.520;15.068;2022-12-15T02:44:28;14.16;78.17
71839;SHT31;59687;37.520;15.068;2022-12-15T02:47:33;14.12;78.46
71839;SHT31;59687;37.520;15.068;2022-12-15T02:56:17;14.05;78.11
71839;SHT31;59687;37.520;15.068;2022-12-15T03:01:45;14.14;77.45
71839;SHT31;59687;37.520;15.068;2022-12-15T03:04:15;14.19;77.78
71839;SHT31;59687;37.520;15.068;2022-12-15T03:06:42;14.18;77.89
71839;SHT31;59687;37.520;15.068;2022-12-15T03:09:29;14.25;77.88
71839;SHT31;59687;37.520;15.068;2022-12-15T03:11:56;14.23;78.13
71839;SHT31;59687;37.520;15.068;2022-12-15T03:14:23;14.25;78.27
71839;SHT31;59687;37.520;15.068;2022-12-15T03:16:53;14.28;78.53
71839;SHT31;59687;37.520;15.068;2022-12-15T03:19:22;14.32;78.28
71839;SHT31;59687;37.520;15.068;2022-12-15T03:21:48;14.29;78.68
71839;SHT31;59687;37.520;15.068;2022-12-15T03:24:15;14.28;78.71
71839;SHT31;59687;37.520;15.068;2022-12-15T03:26:42;14.32;78.86
71839;SHT31;59687;37.520;15.068;2022-12-15T03:29:09;14.29;78.98
71839;SHT31;59687;37.520;15.068;2022-12-15T03:35:06;14.26;79.32
71839;SHT31;59687;37.520;15.068;2022-12-15T03:37:33;14.22;79.36
71839;SHT31;59687;37.520;15.068;2022-12-15T03:40:00;14.23;79.42
71839;SHT31;59687;37.520;15.068;2022-12-15T03:42:27;14.21;79.28
71839;SHT31;59687;37.520;15.068;2022-12-15T03:45:20;14.15;79.27
71839;SHT31;59687;37.520;15.068;2022-12-15T03:47:50;14.11;79.34
71839;SHT31;59687;37.520;15.068;2022-12-15T03:50:20;14.04;79.41
71839;SHT31;59687;37.520;15.068;2022-12-15T03:52:54;14.04;79.15
71839;SHT31;59687;37.520;15.068;2022-12-15T03:55:23;14.11;78.72
71839;SHT31;59687;37.520;15.068;2022-12-15T03:57:52;14.06;78.55
71839;SHT31;59687;37.520;15.068;2022-12-15T04:00:20;14.08;78.09
71839;SHT31;59687;37.520;15.068;2022-12-15T04:02:49;14.12;77.49
71839;SHT31;59687;37.520;15.068;2022-12-15T04:05:30;14.12;77.02
71839;SHT31;59687;37.520;15.068;2022-12-15T04:07:59;14.19;75.53
71839;SHT31;59687;37.520;15.068;2022-12-15T04:10:28;14.26;74.74
71839;SHT31;59687;37.520;15.068;2022-12-15T04:13:00;14.29;74.41
71839;SHT31;59687;37.520;15.068;2022-12-15T04:15:28;14.33;73.64
71839;SHT31;59687;37.520;15.068;2022-12-15T04:17:55;14.49;72.65
71839;SHT31;59687;37.520;15.068;2022-12-15T04:20:23;14.46;72.17
71839;SHT31;59687;37.520;15.068;2022-12-15T04:22:49;14.51;71.35
71839;SHT31;59687;37.520;15.068;2022-12-15T04:25:21;14.59;71.10
71839;SHT31;59687;37.520;15.068;2022-12-15T04:28:07;14.66;70.34
71839;SHT31;59687;37.520;15.068;2022-12-15T04:31:00;14.67;70.08
71839;SHT31;59687;37.520;15.068;2022-12-15T04:33:49;14.75;68.13
71839;SHT31;59687;37.520;15.068;2022-12-15T04:36:37;14.88;66.81
71839;SHT31;59687;37.520;15.068;2022-12-15T04:39:24;15.05;65.63
71839;SHT31;59687;37.520;15.068;2022-12-15T04:42:09;15.11;65.39
71839;SHT31;59687;37.520;15.068;2022-12-15T04:45:00;15.23;64.63
71839;SHT31;59687;37.520;15.068;2022-12-15T04:47:47;15.35;63.20
71839;SHT31;59687;37.520;15.068;2022-12-15T04:50:33;15.43;61.48
71839;SHT31;59687;37.520;15.068;2022-12-15T04:53:18;15.49;61.39
71839;SHT31;59687;37.520;15.068;2022-12-15T04:56:09;15.61;61.01
71839;SHT31;59687;37.520;15.068;2022-12-15T04:58:55;15.58;60.25
71839;SHT31;59687;37.520;15.068;2022-12-15T05:05:10;15.68;61.68
71839;SHT31;59687;37.520;15.068;2022-12-15T05:07:58;15.68;63.63
71839;SHT31;59687;37.520;15.068;2022-12-15T05:10:43;15.58;64.64
71839;SHT31;59687;37.520;15.068;2022-12-15T05:13:29;15.44;65.17
71839;SHT31;59687;37.520;15.068;2022-12-15T05:16:14;15.27;65.96
71839;SHT31;59687;37.520;15.068;2022-12-15T05:19:00;15.18;68.43
71839;SHT31;59687;37.520;15.068;2022-12-15T05:21:46;15.11;71.01
71839;SHT31;59687;37.520;15.068;2022-12-15T05:24:31;14.96;72.63
71839;SHT31;59687;37.520;15.068;2022-12-15T05:27:16;14.91;73.17
71839;SHT31;59687;37.520;15.068;2022-12-15T05:30:02;14.85;74.09
71839;SHT31;59687;37.520;15.068;2022-12-15T05:32:47;14.78;76.01
71839;SHT31;59687;37.520;15.068;2022-12-15T05:35:15;14.84;78.74
71839;SHT31;59687;37.520;15.068;2022-12-15T05:37:41;14.81;79.20
71839;SHT31;59687;37.520;15.068;2022-12-15T05:40:10;14.84;79.46
71839;SHT31;59687;37.520;15.068;2022-12-15T05:42:37;14.84;81.50
71839;SHT31;59687;37.520;15.068;2022-12-15T05:45:04;14.92;82.48
71839;SHT31;59687;37.520;15.068;2022-12-15T05:47:31;14.94;81.96
71839;SHT31;59687;37.520;15.068;2022-12-15T05:49:58;14.91;82.80
71839;SHT31;59687;37.520;15.068;2022-12-15T05:52:25;14.99;83.05
71839;SHT31;59687;37.520;15.068;2022-12-15T05:54:53;15.02;84.32
71839;SHT31;59687;37.520;15.068;2022-12-15T05:57:19;15.16;83.96
71839;SHT31;59687;37.520;15.068;2022-12-15T05:59:46;15.23;83.89
71839;SHT31;59687;37.520;15.068;2022-12-15T06:02:13;15.33;84.40
71839;SHT31;59687;37.520;15.068;2022-12-15T06:04:42;15.42;84.55
71839;SHT31;59687;37.520;15.068;2022-12-15T06:07:09;15.44;84.23
71839;SHT31;59687;37.520;15.068;2022-12-15T06:09:36;15.44;84.28
71839;SHT31;59687;37.520;15.068;2022-12-15T06:12:03;15.57;84.16
71839;SHT31;59687;37.520;15.068;2022-12-15T06:14:30;15.60;84.10
71839;SHT31;59687;37.520;15.068;2022-12-15T06:17:05;15.77;83.69
71839;SHT31;59687;37.520;15.068;2022-12-15T06:19:33;15.95;83.19
71839;SHT31;59687;37.520;15.068;2022-12-15T06:22:00;16.16;82.44
71839;SHT31;59687;37.520;15.068;2022-12-15T06:24:27;16.44;81.30
71839;SHT31;59687;37.520;15.068;2022-12-15T06:26:54;16.74;80.19
71839;SHT31;59687;37.520;15.068;2022-12-15T06:29:20;17.13;78.80
71839;SHT31;59687;37.520;15.068;2022-12-15T06:31:47;17.36;77.35
71839;SHT31;59687;37.520;15.068;2022-12-15T06:34:15;17.38;77.11
71839;SHT31;59687;37.520;15.068;2022-12-15T06:36:44;17.30;77.04
71839;SHT31;59687;37.520;15.068;2022-12-15T06:39:12;17.22;77.27
71839;SHT31;59687;37.520;15.068;2022-12-15T06:41:40;17.16;77.37
71839;SHT31;59687;37.520;15.068;2022-12-15T06:44:11;17.06;77.71
71839;SHT31;59687;37.520;15.068;2022-12-15T06:46:39;17.02;78.02
71839;SHT31;59687;37.520;15.068;2022-12-15T06:49:06;17.03;78.08
71839;SHT31;59687;37.520;15.068;2022-12-15T06:51:33;17.08;78.13
71839;SHT31;59687;37.520;15.068;2022-12-15T06:54:00;17.12;78.08
71839;SHT31;59687;37.520;15.068;2022-12-15T06:56:30;17.20;77.92
71839;SHT31;59687;37.520;15.068;2022-12-15T06:58:59;17.29;77.81
71839;SHT31;59687;37.520;15.068;2022-12-15T07:01:27;17.37;77.59
71839;SHT31;59687;37.520;15.068;2022-12-15T07:03:55;17.55;77.18
71839;SHT31;59687;37.520;15.068;2022-12-15T07:06:22;17.75;76.49
71839;SHT31;59687;37.520;15.068;2022-12-15T07:08:52;18.14;75.55
71839;SHT31;59687;37.520;15.068;2022-12-15T07:11:20;18.78;73.54
71839;SHT31;59687;37.520;15.068;2022-12-15T07:13:48;19.53;71.02
71839;SHT31;59687;37.520;15.068;2022-12-15T07:16:16;20.17;68.25
71839;SHT31;59687;37.520;15.068;2022-12-15T07:18:44;20.90;66.66
71839;SHT31;59687;37.520;15.068;2022-12-15T07:21:11;21.58;64.23
71839;SHT31;59687;37.520;15.068;2022-12-15T07:23:38;22.40;62.15
71839;SHT31;59687;37.520;15.068;2022-12-15T07:26:18;23.04;59.78
71839;SHT31;59687;37.520;15.068;2022-12-15T07:28:45;23.56;58.45
71839;SHT31;59687;37.520;15.068;2022-12-15T07:31:12;24.11;56.92
71839;SHT31;59687;37.520;15.068;2022-12-15T07:33:41;24.29;55.87
71839;SHT31;59687;37.520;15.068;2022-12-15T07:36:09;24.59;55.07
71839;SHT31;59687;37.520;15.068;2022-12-15T07:38:36;24.98;54.18
71839;SHT31;59687;37.520;15.068;2022-12-15T07:41:05;25.50;52.98
71839;SHT31;59687;37.520;15.068;2022-12-15T07:43:33;26.07;51.60
71839;SHT31;59687;37.520;15.068;2022-12-15T07:46:00;26.80;50.10
71839;SHT31;59687;37.520;15.068;2022-12-15T07:48:29;27.34;48.23
71839;SHT31;59687;37.520;15.068;2022-12-15T07:50:56;27.69;47.67
71839;SHT31;59687;37.520;15.068;2022-12-15T07:53:26;27.86;47.12
71839;SHT31;59687;37.520;15.068;2022-12-15T07:55:55;28.11;46.35
71839;SHT31;59687;37.520;15.068;2022-12-15T07:58:32;28.25;45.90
71839;SHT31;59687;37.520;15.068;2022-12-15T08:01:03;28.10;46.36
71839;SHT31;59687;37.520;15.068;2022-12-15T08:03:30;27.76;46.31
71839;SHT31;59687;37.520;15.068;2022-12-15T08:05:57;27.70;47.00
71839;SHT31;59687;37.520;15.068;2022-12-15T08:08:30;27.74;47.32
71839;SHT31;59687;37.520;15.068;2022-12-15T08:10:58;27.53;47.23
71839;SHT31;59687;37.520;15.068;2022-12-15T08:13:25;27.18;48.82
71839;SHT31;59687;37.520;15.068;2022-12-15T08:16:12;26.66;49.82
71839;SHT31;59687;37.520;15.068;2022-12-15T08:18:39;26.27;50.24
71839;SHT31;59687;37.520;15.068;2022-12-15T08:21:08;25.70;51.03
71839;SHT31;59687;37.520;15.068;2022-12-15T08:23:36;25.04;53.57
71839;SHT31;59687;37.520;15.068;2022-12-15T08:26:12;24.61;54.38
71839;SHT31;59687;37.520;15.068;2022-12-15T08:28:41;24.41;54.91
71839;SHT31;59687;37.520;15.068;2022-12-15T08:31:11;24.65;54.55
71839;SHT31;59687;37.520;15.068;2022-12-15T08:33:38;25.10;54.01
71839;SHT31;59687;37.520;15.068;2022-12-15T08:36:08;25.93;52.72
71839;SHT31;59687;37.520;15.068;2022-12-15T08:38:37;26.53;51.09
71839;SHT31;59687;37.520;15.068;2022-12-15T08:41:10;26.41;49.85
71839;SHT31;59687;37.520;15.068;2022-12-15T08:43:40;26.36;50.22
71839;SHT31;59687;37.520;15.068;2022-12-15T08:46:13;26.36;50.18
71839;SHT31;59687;37.520;15.068;2022-12-15T08:48:40;26.35;50.29
71839;SHT31;59687;37.520;15.068;2022-12-15T08:51:07;26.68;49.73
71839;SHT31;59687;37.520;15.068;2022-12-15T08:53:35;26.80;49.10
71839;SHT31;59687;37.520;15.068;2022-12-15T08:56:07;26.91;48.10
71839;SHT31;59687;37.520;15.068;2022-12-15T08:58:35;26.66;48.24
71839;SHT31;59687;37.520;15.068;2022-12-15T09:01:11;27.01;48.04
71839;SHT31;59687;37.520;15.068;2022-12-15T09:03:41;27.86;47.08
71839;SHT31;59687;37.520;15.068;2022-12-15T09:06:14;28.31;45.26
71839;SHT31;59687;37.520;15.068;2022-12-15T09:08:42;28.94;44.25
71839;SHT31;59687;37.520;15.068;2022-12-15T09:11:10;29.53;42.99
71839;SHT31;59687;37.520;15.068;2022-12-15T09:13:37;29.53;42.12
71839;SHT31;59687;37.520;15.068;2022-12-15T09:16:12;29.78;42.30
71839;SHT31;59687;37.520;15.068;2022-12-15T09:18:48;30.66;40.79
71839;SHT31;59687;37.520;15.068;2022-12-15T09:21:16;31.05;38.86
71839;SHT31;59687;37.520;15.068;2022-12-15T09:23:47;31.36;37.23
71839;SHT31;59687;37.520;15.068;2022-12-15T09:26:18;31.63;36.69
71839;SHT31;59687;37.520;15.068;2022-12-15T09:28:46;31.70;36.52
71839;SHT31;59687;37.520;15.068;2022-12-15T09:31:16;32.07;35.63
71839;SHT31;59687;37.520;15.068;2022-12-15T09:33:50;32.28;36.09
71839;SHT31;59687;37.520;15.068;2022-12-15T09:36:18;32.15;35.38
71839;SHT31;59687;37.520;15.068;2022-12-15T09:38:45;31.81;35.61
71839;SHT31;59687;37.520;15.068;2022-12-15T09:41:28;32.11;35.79
71839;SHT31;59687;37.520;15.068;2022-12-15T09:49:08;31.42;35.60
71839;SHT31;59687;37.520;15.068;2022-12-15T09:51:43;31.90;35.49
71839;SHT31;59687;37.520;15.068;2022-12-15T09:54:12;32.59;35.01
71839;SHT31;59687;37.520;15.068;2022-12-15T09:56:54;32.39;34.64
71839;SHT31;59687;37.520;15.068;2022-12-15T10:02:49;33.12;34.57
71839;SHT31;59687;37.520;15.068;2022-12-15T10:08:51;33.12;34.21
71839;SHT31;59687;37.520;15.068;2022-12-15T10:11:29;34.19;33.00
71839;SHT31;59687;37.520;15.068;2022-12-15T10:14:14;34.59;32.55
71839;SHT31;59687;37.520;15.068;2022-12-15T10:17:01;35.84;30.47
71839;SHT31;59687;37.520;15.068;2022-12-15T10:19:47;36.77;29.06
71839;SHT31;59687;37.520;15.068;2022-12-15T10:22:31;37.73;28.08
71839;SHT31;59687;37.520;15.068;2022-12-15T10:25:20;38.00;27.86
71839;SHT31;59687;37.520;15.068;2022-12-15T10:30:47;38.63;27.06
71839;SHT31;59687;37.520;15.068;2022-12-15T10:33:22;39.86;25.89
71839;SHT31;59687;37.520;15.068;2022-12-15T10:35:54;39.38;25.95
71839;SHT31;59687;37.520;15.068;2022-12-15T10:38:35;38.16;27.68
71839;SHT31;59687;37.520;15.068;2022-12-15T10:41:10;39.63;25.74
71839;SHT31;59687;37.520;15.068;2022-12-15T10:43:45;39.62;26.04
71839;SHT31;59687;37.520;15.068;2022-12-15T10:46:27;39.76;26.00
71839;SHT31;59687;37.520;15.068;2022-12-15T10:49:15;38.08;27.28
71839;SHT31;59687;37.520;15.068;2022-12-15T10:51:53;38.89;26.78
71839;SHT31;59687;37.520;15.068;2022-12-15T10:54:23;39.85;25.90
71839;SHT31;59687;37.520;15.068;2022-12-15T10:56:58;39.76;26.47
71839;SHT31;59687;37.520;15.068;2022-12-15T10:59:29;39.69;25.75
71839;SHT31;59687;37.520;15.068;2022-12-15T11:02:25;40.17;25.34
71839;SHT31;59687;37.520;15.068;2022-12-15T11:04:59;40.35;25.15
71839;SHT31;59687;37.520;15.068;2022-12-15T11:07:48;41.49;24.39
71839;SHT31;59687;37.520;15.068;2022-12-15T11:13:12;39.77;25.83
71839;SHT31;59687;37.520;15.068;2022-12-15T11:15:45;39.51;25.77
71839;SHT31;59687;37.520;15.068;2022-12-15T11:21:08;42.13;23.71
71839;SHT31;59687;37.520;15.068;2022-12-15T11:23:49;43.80;22.40
71839;SHT31;59687;37.520;15.068;2022-12-15T11:28:57;38.17;26.85
71839;SHT31;59687;37.520;15.068;2022-12-15T11:31:36;35.43;29.60
71839;SHT31;59687;37.520;15.068;2022-12-15T11:34:11;37.49;28.19
71839;SHT31;59687;37.520;15.068;2022-12-15T11:56:46;41.18;24.13
71839;SHT31;59687;37.520;15.068;2022-12-15T12:10:32;37.30;26.52
71839;SHT31;59687;37.520;15.068;2022-12-15T12:21:38;39.61;25.58
71839;SHT31;59687;37.520;15.068;2022-12-15T12:29:45;34.53;32.30
71839;SHT31;59687;37.520;15.068;2022-12-15T12:32:33;35.32;30.95
71839;SHT31;59687;37.520;15.068;2022-12-15T12:35:16;35.41;31.24
71839;SHT31;59687;37.520;15.068;2022-12-15T12:37:59;35.10;31.30
71839;SHT31;59687;37.520;15.068;2022-12-15T12:41:23;35.77;29.98
71839;SHT31;59687;37.520;15.068;2022-12-15T12:43:45;36.42;29.10
71839;SHT31;59687;37.520;15.068;2022-12-15T12:46:41;36.57;29.20
71839;SHT31;59687;37.520;15.068;2022-12-15T12:49:47;36.00;30.00
71839;SHT31;59687;37.520;15.068;2022-12-15T12:52:22;36.49;29.28
71839;SHT31;59687;37.520;15.068;2022-12-15T12:54:55;36.72;28.55
71839;SHT31;59687;37.520;15.068;2022-12-15T12:57:35;36.39;29.19
71839;SHT31;59687;37.520;15.068;2022-12-15T13:00:16;36.21;29.65
71839;SHT31;59687;37.520;15.068;2022-12-15T13:06:55;35.24;31.16
71839;SHT31;59687;37.520;15.068;2022-12-15T13:17:13;33.11;34.81
71839;SHT31;59687;37.520;15.068;2022-12-15T13:22:36;33.15;34.58
71839;SHT31;59687;37.520;15.068;2022-12-15T13:25:34;32.60;35.13
71839;SHT31;59687;37.520;15.068;2022-12-15T13:28:22;31.88;36.06
71839;SHT31;59687;37.520;15.068;2022-12-15T13:33:53;29.41;40.67
71839;SHT31;59687;37.520;15.068;2022-12-15T13:41:43;28.28;43.93
71839;SHT31;59687;37.520;15.068;2022-12-15T13:46:57;28.18;44.73
71839;SHT31;59687;37.520;15.068;2022-12-15T13:49:45;27.90;44.76
71839;SHT31;59687;37.520;15.068;2022-12-15T13:52:37;27.65;44.77
71839;SHT31;59687;37.520;15.068;2022-12-15T13:55:35;26.51;47.66
71839;SHT31;59687;37.520;15.068;2022-12-15T13:58:13;26.28;48.62
71839;SHT31;59687;37.520;15.068;2022-12-15T14:00:53;26.17;49.20
71839;SHT31;59687;37.520;15.068;2022-12-15T14:03:21;25.67;50.49
71839;SHT31;59687;37.520;15.068;2022-12-15T14:05:54;24.84;53.30
71839;SHT31;59687;37.520;15.068;2022-12-15T14:08:23;24.68;54.18
71839;SHT31;59687;37.520;15.068;2022-12-15T14:10:57;24.24;54.91
71839;SHT31;59687;37.520;15.068;2022-12-15T14:13:29;24.06;55.76
71839;SHT31;59687;37.520;15.068;2022-12-15T14:15:58;23.44;57.94
71839;SHT31;59687;37.520;15.068;2022-12-15T14:18:33;22.89;59.48
71839;SHT31;59687;37.520;15.068;2022-12-15T14:21:05;22.52;60.88
71839;SHT31;59687;37.520;15.068;2022-12-15T14:23:42;22.31;61.51
71839;SHT31;59687;37.520;15.068;2022-12-15T14:26:29;21.92;62.98
71839;SHT31;59687;37.520;15.068;2022-12-15T14:29:02;21.88;63.71
71839;SHT31;59687;37.520;15.068;2022-12-15T14:31:30;21.97;63.17
71839;SHT31;59687;37.520;15.068;2022-12-15T14:34:13;22.37;62.40
71839;SHT31;59687;37.520;15.068;2022-12-15T14:36:42;22.87;61.11
71839;SHT31;59687;37.520;15.068;2022-12-15T14:39:19;23.48;59.16
71839;SHT31;59687;37.520;15.068;2022-12-15T14:41:48;23.75;57.92
71839;SHT31;59687;37.520;15.068;2022-12-15T14:46:55;24.34;56.60
71839;SHT31;59687;37.520;15.068;2022-12-15T14:49:30;24.69;55.67
71839;SHT31;59687;37.520;15.068;2022-12-15T14:52:02;24.86;54.87
71839;SHT31;59687;37.520;15.068;2022-12-15T14:54:38;24.97;54.58
71839;SHT31;59687;37.520;15.068;2022-12-15T14:59:39;25.02;54.51
71839;SHT31;59687;37.520;15.068;2022-12-15T15:02:25;24.91;54.64
71839;SHT31;59687;37.520;15.068;2022-12-15T15:05:05;24.72;55.09
71839;SHT31;59687;37.520;15.068;2022-12-15T15:07:36;24.52;55.71
71839;SHT31;59687;37.520;15.068;2022-12-15T15:10:27;24.24;56.36
71839;SHT31;59687;37.520;15.068;2022-12-15T15:12:55;24.00;56.88
71839;SHT31;59687;37.520;15.068;2022-12-15T15:15:27;23.62;57.74
71839;SHT31;59687;37.520;15.068;2022-12-15T15:17:56;23.20;59.09
71839;SHT31;59687;37.520;15.068;2022-12-15T15:20:30;22.65;60.79
71839;SHT31;59687;37.520;15.068;2022-12-15T15:25:37;21.63;64.37
71839;SHT31;59687;37.520;15.068;2022-12-15T15:28:27;21.23;65.80
71839;SHT31;59687;37.520;15.068;2022-12-15T15:30:56;20.93;66.92
71839;SHT31;59687;37.520;15.068;2022-12-15T15:33:26;20.59;68.78
71839;SHT31;59687;37.520;15.068;2022-12-15T15:35:55;20.31;69.32
71839;SHT31;59687;37.520;15.068;2022-12-15T15:38:31;20.05;70.40
71839;SHT31;59687;37.520;15.068;2022-12-15T15:41:10;19.83;71.69
71839;SHT31;59687;37.520;15.068;2022-12-15T15:43:43;19.65;72.19
71839;SHT31;59687;37.520;15.068;2022-12-15T15:46:14;19.43;72.66
71839;SHT31;59687;37.520;15.068;2022-12-15T15:48:46;19.27;73.07
71839;SHT31;59687;37.520;15.068;2022-12-15T15:51:15;19.10;73.85
71839;SHT31;59687;37.520;15.068;2022-12-15T15:53:42;18.96;74.57
71839;SHT31;59687;37.520;15.068;2022-12-15T15:56:14;18.86;75.40
71839;SHT31;59687;37.520;15.068;2022-12-15T15:58:42;18.73;76.33
71839;SHT31;59687;37.520;15.068;2022-12-15T16:01:12;18.64;76.20
71839;SHT31;59687;37.520;15.068;2022-12-15T16:03:47;18.51;76.93
71839;SHT31;59687;37.520;15.068;2022-12-15T16:06:16;18.43;77.43
71839;SHT31;59687;37.520;15.068;2022-12-15T16:08:50;18.34;77.74
71839;SHT31;59687;37.520;15.068;2022-12-15T16:11:17;18.38;77.74
71839;SHT31;59687;37.520;15.068;2022-12-15T16:13:45;18.44;77.54
71839;SHT31;59687;37.520;15.068;2022-12-15T16:16:17;18.36;78.02
71839;SHT31;59687;37.520;15.068;2022-12-15T16:18:44;18.32;78.65
71839;SHT31;59687;37.520;15.068;2022-12-15T16:21:13;18.29;78.64
71839;SHT31;59687;37.520;15.068;2022-12-15T16:23:43;18.24;78.92
71839;SHT31;59687;37.520;15.068;2022-12-15T16:26:14;18.32;78.25
71839;SHT31;59687;37.520;15.068;2022-12-15T16:28:43;18.33;77.98
71839;SHT31;59687;37.520;15.068;2022-12-15T16:31:14;18.29;78.32
71839;SHT31;59687;37.520;15.068;2022-12-15T16:33:51;18.17;78.55
71839;SHT31;59687;37.520;15.068;2022-12-15T16:36:18;18.13;78.97
71839;SHT31;59687;37.520;15.068;2022-12-15T16:38:47;18.07;79.22
71839;SHT31;59687;37.520;15.068;2022-12-15T16:41:16;18.03;79.50
71839;SHT31;59687;37.520;15.068;2022-12-15T16:43:45;17.96;79.57
71839;SHT31;59687;37.520;15.068;2022-12-15T16:46:14;17.91;79.66
71839;SHT31;59687;37.520;15.068;2022-12-15T16:48:42;17.88;79.50
71839;SHT31;59687;37.520;15.068;2022-12-15T16:51:36;17.85;79.44
71839;SHT31;59687;37.520;15.068;2022-12-15T16:54:05;17.77;78.98
71839;SHT31;59687;37.520;15.068;2022-12-15T16:56:32;17.72;78.87
71839;SHT31;59687;37.520;15.068;2022-12-15T16:59:01;17.72;78.91
71839;SHT31;59687;37.520;15.068;2022-12-15T17:01:49;17.70;78.73
71839;SHT31;59687;37.520;15.068;2022-12-15T17:04:16;17.72;78.46
71839;SHT31;59687;37.520;15.068;2022-12-15T17:06:45;17.70;78.39
71839;SHT31;59687;37.520;15.068;2022-12-15T17:09:19;17.68;78.40
71839;SHT31;59687;37.520;15.068;2022-12-15T17:11:47;17.70;78.33
71839;SHT31;59687;37.520;15.068;2022-12-15T17:14:14;17.72;78.14
71839;SHT31;59687;37.520;15.068;2022-12-15T17:16:42;17.75;78.18
71839;SHT31;59687;37.520;15.068;2022-12-15T17:19:09;17.81;77.90
71839;SHT31;59687;37.520;15.068;2022-12-15T17:21:50;17.85;77.88
71839;SHT31;59687;37.520;15.068;2022-12-15T17:24:19;17.93;77.85
71839;SHT31;59687;37.520;15.068;2022-12-15T17:26:49;18.30;76.97
71839;SHT31;59687;37.520;15.068;2022-12-15T17:29:19;18.47;76.12
71839;SHT31;59687;37.520;15.068;2022-12-15T17:31:48;18.34;76.46
71839;SHT31;59687;37.520;15.068;2022-12-15T17:34:32;18.20;77.10
71839;SHT31;59687;37.520;15.068;2022-12-15T17:37:01;18.24;76.52
71839;SHT31;59687;37.520;15.068;2022-12-15T17:39:32;18.32;76.15
71839;SHT31;59687;37.520;15.068;2022-12-15T17:42:04;18.41;75.54
71839;SHT31;59687;37.520;15.068;2022-12-15T17:44:34;18.30;76.00
71839;SHT31;59687;37.520;15.068;2022-12-15T17:47:04;18.62;74.64
71839;SHT31;59687;37.520;15.068;2022-12-15T17:49:32;18.68;74.52
71839;SHT31;59687;37.520;15.068;2022-12-15T17:52:27;18.65;74.61
71839;SHT31;59687;37.520;15.068;2022-12-15T17:54:55;18.75;74.11
71839;SHT31;59687;37.520;15.068;2022-12-15T17:57:22;18.79;74.17
71839;SHT31;59687;37.520;15.068;2022-12-15T17:59:58;18.71;74.44
71839;SHT31;59687;37.520;15.068;2022-12-15T18:02:30;18.64;74.77
71839;SHT31;59687;37.520;15.068;2022-12-15T18:05:02;18.75;74.50
71839;SHT31;59687;37.520;15.068;2022-12-15T18:07:30;18.82;74.13
71839;SHT31;59687;37.520;15.068;2022-12-15T18:10:00;18.60;74.80
71839;SHT31;59687;37.520;15.068;2022-12-15T18:12:29;18.48;75.37
71839;SHT31;59687;37.520;15.068;2022-12-15T18:14:56;18.69;74.91